Jansen, Canada
Current Conditions -  °F | °C
As of 4:00 AM on Sunday 23 Nov 2014 (Local Time) from CYXE Reporting Station
Light Snow Light Snow  
Wind Chill: -3°   Ceiling: 4000
Heat Index: 12°   Visibility: 6mi
Dew Point:   Wind: 13mph
Humidity: 85%   Direction: 360°N
Pressure: 29.66"   Gusts: NA
Location:  51.78°N, 104.72°W
Report Text: CYXE 231000Z 36011KT 6SM -SN DRSN SCT020 OVC040 M11/M13 A2966 RMK SC3SC5 SLP077
Loading
Personal Weather Stations






























Interactive Weather Map New forecast layout! Learn more

10-Day Weather Forecast

Advertisements
Track Severe Weather on mobile